• Join FlightAware (Why Join?)
  • Login
  • US Flag 
02:20PM EDT


 

Airport Tracker/Info


-or-


 

Live Flight TrackerFlight Track Log ✈ DAL6067 ✈ 21-Apr-2013 ✈ KDTW - KCMH

Flight Track Log - Related Links

Times and Time Zones

All times are in EDT time to prevent confusion due to time zone crossing. See the DAL6067 flight status page for this flight to view local times or setup timezone preferences in your user account.

Time Position Orientation Groundspeed Altitude Reporting Facility
EDT Latitude Longitude Course Direction KTS MPH feet Rate Location/Type
12:14PM 42.2100 -83.3531 180° South 152 175 1,200  Level Cleveland Center
12:15PM 42.1553 -83.3703 193° South 206 237 4,000 2,460 Climbing Cleveland Center
12:16PM 42.0861 -83.3950 195° South 254 292 6,700 2,460 Climbing Cleveland Center
12:17PM 41.8368 -83.2729 180° South  Level Estimated
12:17PM 42.0278 -83.3869 174° South 266 306 8,800  Level Cleveland Center
12:18PM 41.7429 -83.2529 180° South  Level Estimated
12:18PM 41.9531 -83.3781 175° South 280 322 11,200  Level Cleveland Center
12:19PM 41.6490 -83.2330 180° South  Level Estimated
12:19PM 41.8656 -83.3686 175° South 290 334 12,700  Level Cleveland Center
12:20PM 41.7722 -83.3564 174° South 318 366 14,700 1,680 Climbing Cleveland Center
12:21PM 41.6767 -83.3411 173° South 333 383 16,100 600 Climbing Cleveland Center
12:22PM 41.5725 -83.3367 178° South 361 415 15,900 -120 Descending Cleveland Center
12:23PM 41.4697 -83.3628 191° South 377 434 15,900  Level Cleveland Center
12:24PM 41.3700 -83.4250 205° Southwest 377 434 16,000  Climbing Cleveland Center
12:25PM 41.2728 -83.4814 204° Southwest 384 442 16,000 -180 Level Cleveland Center
12:26PM 41.1733 -83.5378 203° Southwest 394 453 15,700 -720 Descending Cleveland Center
12:27PM 41.0886 -83.5889 204° Southwest 386 444 14,600 -1,260 Descending Cleveland Center
12:28PM 40.9933 -83.6397 202° Southwest 371 427 13,200 -1,440 Descending Cleveland Center
12:29PM 40.9006 -83.6819 199° South 360 414 11,800 -1,200 Descending Cleveland Center
12:29PM 40.8119 -83.6264 155° Southeast 352 405 11,000 -420 Descending Indianapolis Center
12:31PM 40.7289 -83.5561 147° Southeast 342 394 11,000 -360 Level Cleveland Center
12:33PM 40.5656 -83.4083 145° Southeast 348 400 10,000 -360 Descending Indianapolis Center
12:34PM 40.4878 -83.3406 146° Southeast 336 387 10,000  Level Indianapolis Center
12:34PM 40.4461 -83.3064 148° Southeast 332 382 10,000 -600 Level Indianapolis Center
12:35PM 40.4150 -83.2781 145° Southeast 316 364 9,400 -1,560 Descending Indianapolis Center
12:35PM 40.3819 -83.2683 167° South 279 321 8,600 -1,560 Descending Indianapolis Center
12:36PM 40.3406 -83.2619 173° South 277 319 7,800 -1,500 Descending Indianapolis Center
12:36PM 40.3092 -83.2597 177° South 257 296 7,100 -1,680 Descending Indianapolis Center
12:37PM 40.2694 -83.2561 176° South 259 298 6,100 -1,740 Descending Indianapolis Center
12:37PM 40.2322 -83.2533 177° South 247 284 5,200 -1,080 Descending Indianapolis Center
12:38PM 40.1994 -83.2506 176° South 253 291 5,000 -600 Descending Indianapolis Center
12:38PM 40.1614 -83.2475 176° South 244 281 4,600 -1,020 Descending Indianapolis Center
12:39PM 40.1225 -83.2450 177° South 243 280 4,000 -600 Descending Indianapolis Center
12:39PM 40.0989 -83.2456 181° South 226 260 4,000  Level Indianapolis Center
12:40PM 40.0589 -83.2403 174° South 233 268 4,000  Level Indianapolis Center
12:40PM 40.0458 -83.2228 134° Southeast 234 269 4,000 -780 Level Indianapolis Center
12:41PM 40.0203 -83.1756 125° Southeast 227 261 3,200 -900 Descending Indianapolis Center
12:41PM 40.0156 -83.1486 103° East 214 246 3,000 -600 Descending Indianapolis Center